createdAt,value
2019-02-11T00:01:01.644Z,4.39
2019-02-11T00:03:30.903Z,4.39
2019-02-11T00:06:00.152Z,4.33
2019-02-11T00:08:29.434Z,4.39
2019-02-11T00:10:59.686Z,4.39
2019-02-11T00:13:29.102Z,4.39
2019-02-11T00:15:58.373Z,4.39
2019-02-11T00:18:27.614Z,4.36
2019-02-11T00:20:56.888Z,4.34
2019-02-11T00:23:26.173Z,4.38
2019-02-11T00:25:57.246Z,4.40
2019-02-11T00:28:26.512Z,4.43
2019-02-11T00:30:55.883Z,4.46
2019-02-11T00:33:25.123Z,4.51
2019-02-11T00:35:54.521Z,4.52
2019-02-11T00:38:23.758Z,4.55
2019-02-11T00:40:53.002Z,4.57
2019-02-11T00:43:22.383Z,4.60
2019-02-11T00:45:51.638Z,4.60
2019-02-11T00:48:20.907Z,4.62
2019-02-11T00:50:50.155Z,4.63
2019-02-11T00:53:19.453Z,4.65
2019-02-11T00:55:48.732Z,4.62
2019-02-11T00:58:17.966Z,4.64
2019-02-11T01:00:47.245Z,4.68
2019-02-11T01:03:16.484Z,4.67
2019-02-11T01:05:45.748Z,4.66
2019-02-11T01:08:14.995Z,4.64
2019-02-11T01:10:44.270Z,4.59
2019-02-11T01:13:13.518Z,4.61
2019-02-11T01:15:42.839Z,4.60
2019-02-11T01:18:12.090Z,4.59
2019-02-11T01:20:41.364Z,4.59
2019-02-11T01:23:10.615Z,4.60
2019-02-11T01:25:39.896Z,4.61
2019-02-11T01:28:09.150Z,4.57
2019-02-11T01:30:38.397Z,4.53
2019-02-11T01:33:07.690Z,4.55
2019-02-11T01:35:36.932Z,4.60
2019-02-11T01:38:06.202Z,4.62
2019-02-11T01:40:35.452Z,4.62
2019-02-11T01:43:04.708Z,4.60
2019-02-11T01:45:33.976Z,4.57
2019-02-11T01:48:03.261Z,4.58
2019-02-11T01:50:32.537Z,4.61
2019-02-11T01:53:01.790Z,4.57
2019-02-11T01:55:31.086Z,4.57
2019-02-11T01:58:00.774Z,4.57
2019-02-11T02:00:30.041Z,4.54
2019-02-11T02:02:59.312Z,4.56
2019-02-11T02:05:29.430Z,4.55
2019-02-11T02:07:58.719Z,4.52
2019-02-11T02:10:27.995Z,4.52
2019-02-11T02:12:57.246Z,4.53
2019-02-11T02:15:26.511Z,4.51
2019-02-11T02:17:55.792Z,4.49
2019-02-11T02:20:25.057Z,4.40
2019-02-11T02:22:54.298Z,4.37
2019-02-11T02:25:23.565Z,4.25
2019-02-11T02:27:52.857Z,4.21
2019-02-11T02:30:22.177Z,4.25
2019-02-11T02:32:51.449Z,4.28
2019-02-11T02:35:20.745Z,4.27
2019-02-11T02:37:49.977Z,4.27
2019-02-11T02:40:19.244Z,4.28
2019-02-11T02:42:48.486Z,4.31
2019-02-11T02:45:17.864Z,4.30
2019-02-11T02:47:47.110Z,4.23
2019-02-11T02:50:17.366Z,4.16
2019-02-11T02:52:46.665Z,4.19
2019-02-11T02:55:15.973Z,4.17
2019-02-11T02:57:45.259Z,4.06
2019-02-11T03:00:14.602Z,4.07
2019-02-11T03:02:43.883Z,4.02
2019-02-11T03:05:13.160Z,3.99
2019-02-11T03:07:42.412Z,3.92
2019-02-11T03:10:12.035Z,3.84
2019-02-11T03:12:41.300Z,3.74
2019-02-11T03:15:10.567Z,3.63
2019-02-11T03:17:39.847Z,3.58
2019-02-11T03:20:09.534Z,3.47
2019-02-11T03:22:38.783Z,3.32
2019-02-11T03:25:08.118Z,3.39
2019-02-11T03:27:37.357Z,3.33
2019-02-11T03:30:07.381Z,3.26
2019-02-11T03:32:38.119Z,3.21
2019-02-11T03:35:07.693Z,3.13
2019-02-11T03:37:36.931Z,3.06
2019-02-11T03:40:06.771Z,2.98
2019-02-11T03:42:36.039Z,2.98
2019-02-11T03:45:06.602Z,2.95
2019-02-11T03:47:35.873Z,2.94
2019-02-11T03:50:05.894Z,2.86
2019-02-11T03:52:35.167Z,2.87
2019-02-11T03:55:04.720Z,2.85
2019-02-11T03:57:34.209Z,2.87
2019-02-11T04:00:03.530Z,2.82
2019-02-11T04:02:32.828Z,2.69
2019-02-11T04:05:02.050Z,2.65
2019-02-11T04:07:32.382Z,2.58
2019-02-11T04:10:01.664Z,2.63
2019-02-11T04:12:30.915Z,2.65
2019-02-11T04:15:00.274Z,2.65
2019-02-11T04:17:29.569Z,2.56
2019-02-11T04:19:58.809Z,2.57
2019-02-11T04:22:28.076Z,2.52
2019-02-11T04:24:57.326Z,2.51
2019-02-11T04:27:27.773Z,2.47
2019-02-11T04:29:57.074Z,2.47
2019-02-11T04:32:26.356Z,2.48
2019-02-11T04:34:55.617Z,2.46
2019-02-11T04:37:24.917Z,2.43
2019-02-11T04:39:54.197Z,2.46
2019-02-11T04:42:23.462Z,2.42
2019-02-11T04:44:52.731Z,2.43
2019-02-11T04:47:22.061Z,2.43
2019-02-11T04:49:51.307Z,2.40
2019-02-11T04:52:20.579Z,2.39
2019-02-11T04:54:50.015Z,2.45
2019-02-11T04:57:19.282Z,2.35
2019-02-11T04:59:48.564Z,2.32
2019-02-11T05:02:17.833Z,2.33
2019-02-11T05:04:47.105Z,2.37
2019-02-11T05:07:16.366Z,2.24
2019-02-11T05:09:45.607Z,2.21
2019-02-11T05:12:14.886Z,2.22
2019-02-11T05:14:44.436Z,2.20
2019-02-11T05:17:13.772Z,2.05
2019-02-11T05:19:43.060Z,2.09
2019-02-11T05:22:12.328Z,2.05
2019-02-11T05:24:41.595Z,1.97
2019-02-11T05:27:10.887Z,2.01
2019-02-11T05:29:40.236Z,2.01
2019-02-11T05:32:09.515Z,2.03
2019-02-11T05:34:38.760Z,2.06
2019-02-11T05:37:08.035Z,2.03
2019-02-11T05:39:37.288Z,2.04
2019-02-11T05:42:06.559Z,1.95
2019-02-11T05:44:35.841Z,2.05
2019-02-11T05:47:05.102Z,2.07
2019-02-11T05:49:34.353Z,2.06
2019-02-11T05:52:03.621Z,2.17
2019-02-11T05:54:32.897Z,2.15
2019-02-11T05:57:02.182Z,2.19
2019-02-11T05:59:31.516Z,2.22
2019-02-11T06:02:00.831Z,2.17
2019-02-11T06:04:30.083Z,2.21
2019-02-11T06:06:59.382Z,2.22
2019-02-11T06:09:28.963Z,2.27
2019-02-11T06:11:59.275Z,2.27
2019-02-11T06:14:28.802Z,2.25
2019-02-11T06:16:58.488Z,2.21
2019-02-11T06:19:28.182Z,2.25
2019-02-11T06:21:57.523Z,2.16
2019-02-11T06:24:26.816Z,2.21
2019-02-11T06:26:56.205Z,2.23
2019-02-11T06:29:25.914Z,2.28
2019-02-11T06:31:55.503Z,2.34
2019-02-11T06:34:25.043Z,2.43
2019-02-11T06:36:54.635Z,2.42
2019-02-11T06:39:23.924Z,2.45
2019-02-11T06:41:53.591Z,2.44
2019-02-11T06:44:24.534Z,2.42
2019-02-11T06:46:55.435Z,2.52
2019-02-11T06:49:25.240Z,2.55
2019-02-11T06:51:54.555Z,2.58
2019-02-11T06:54:25.510Z,2.67
2019-02-11T06:56:55.067Z,2.62
2019-02-11T06:59:25.169Z,2.72
2019-02-11T07:01:54.468Z,2.75
2019-02-11T07:04:24.856Z,2.68
2019-02-11T07:06:54.170Z,2.71
2019-02-11T07:09:23.433Z,2.75
2019-02-11T07:11:52.684Z,2.77
2019-02-11T07:14:21.951Z,2.79
2019-02-11T07:16:51.199Z,2.83
2019-02-11T07:19:20.492Z,2.83
2019-02-11T07:21:58.673Z,2.78
2019-02-11T07:24:34.510Z,2.93
2019-02-11T07:27:03.767Z,2.89
2019-02-11T07:29:33.535Z,2.99
2019-02-11T07:32:02.781Z,3.06
2019-02-11T07:34:32.058Z,3.08
2019-02-11T07:37:01.310Z,2.93
2019-02-11T07:39:30.597Z,3.14
2019-02-11T07:42:27.827Z,3.10
2019-02-11T07:44:59.459Z,3.06
2019-02-11T07:47:28.705Z,3.05
2019-02-11T07:49:57.979Z,3.13
2019-02-11T07:52:27.335Z,3.13
2019-02-11T07:54:56.606Z,3.08
2019-02-11T07:57:25.874Z,3.26
2019-02-11T07:59:55.144Z,3.24
2019-02-11T08:02:24.439Z,3.26
2019-02-11T08:04:53.694Z,3.32
2019-02-11T08:07:22.966Z,3.34
2019-02-11T08:09:52.216Z,3.35
2019-02-11T08:12:22.692Z,3.34
2019-02-11T08:14:51.962Z,3.41
2019-02-11T08:17:21.212Z,3.42
2019-02-11T08:19:50.506Z,3.36
2019-02-11T08:22:19.751Z,3.42
2019-02-11T08:24:49.019Z,3.33
2019-02-11T08:27:18.262Z,3.33
2019-02-11T08:29:47.535Z,3.35
2019-02-11T08:32:16.858Z,3.31
2019-02-11T08:34:46.187Z,3.43
2019-02-11T08:37:15.493Z,3.29
2019-02-11T08:39:44.875Z,3.18
2019-02-11T08:42:15.351Z,3.16
2019-02-11T08:44:44.672Z,3.16
2019-02-11T08:47:13.974Z,3.21
2019-02-11T08:49:43.296Z,3.31
2019-02-11T08:52:12.575Z,3.27
2019-02-11T08:54:41.844Z,3.38
2019-02-11T08:57:11.091Z,3.26
2019-02-11T08:59:40.365Z,3.15
2019-02-11T09:02:09.638Z,3.08
2019-02-11T09:04:38.909Z,3.08
2019-02-11T09:07:08.194Z,3.24
2019-02-11T09:09:37.439Z,3.23
2019-02-11T09:12:06.735Z,3.35
2019-02-11T09:14:36.071Z,3.42
2019-02-11T09:17:10.293Z,3.58
2019-02-11T09:19:36.358Z,3.47
2019-02-11T09:22:07.563Z,3.46
2019-02-11T09:24:36.624Z,3.53
2019-02-11T09:27:06.473Z,3.53
2019-02-11T09:29:35.717Z,3.60
2019-02-11T09:32:05.066Z,3.47
2019-02-11T09:34:34.381Z,3.55
2019-02-11T09:37:03.694Z,3.53
2019-02-11T09:39:32.990Z,3.52
2019-02-11T09:42:02.300Z,3.65
2019-02-11T09:44:31.587Z,3.57
2019-02-11T09:47:00.866Z,3.57
2019-02-11T09:49:30.127Z,3.73
2019-02-11T09:51:59.751Z,3.75
2019-02-11T09:54:29.005Z,3.73
2019-02-11T09:56:58.289Z,3.75
2019-02-11T09:59:27.587Z,3.67
2019-02-11T10:01:56.867Z,3.71
2019-02-11T10:04:26.175Z,3.70
2019-02-11T10:06:55.464Z,3.78
2019-02-11T10:09:26.171Z,3.84
2019-02-11T10:11:56.739Z,3.94
2019-02-11T10:14:25.982Z,4.27
2019-02-11T10:16:55.269Z,4.32
2019-02-11T10:19:24.549Z,4.10
2019-02-11T10:21:53.787Z,3.97
2019-02-11T10:24:23.124Z,3.95
2019-02-11T10:26:52.359Z,4.42
2019-02-11T10:29:21.617Z,4.50
2019-02-11T10:31:50.875Z,4.66
2019-02-11T10:34:20.157Z,4.75
2019-02-11T10:36:49.431Z,4.73
2019-02-11T10:39:18.677Z,4.56
2019-02-11T10:41:47.979Z,4.56
2019-02-11T10:44:17.224Z,4.39
2019-02-11T10:46:46.511Z,4.29
2019-02-11T10:49:15.758Z,4.23
2019-02-11T10:51:45.011Z,4.09
2019-02-11T10:54:14.322Z,4.10
2019-02-11T10:56:43.587Z,4.18
2019-02-11T10:59:12.859Z,4.26
2019-02-11T11:01:42.176Z,4.25
2019-02-11T11:04:11.422Z,4.22
2019-02-11T11:06:40.690Z,4.19
2019-02-11T11:09:13.978Z,4.11
2019-02-11T11:11:43.255Z,4.06
2019-02-11T11:14:12.525Z,4.04
2019-02-11T11:16:41.781Z,3.97
2019-02-11T11:19:11.083Z,3.98
2019-02-11T11:21:40.433Z,4.07
2019-02-11T11:24:09.728Z,3.99
2019-02-11T11:26:38.983Z,3.97
2019-02-11T11:29:08.263Z,4.01
2019-02-11T11:31:37.648Z,4.05
2019-02-11T11:34:06.914Z,4.11
2019-02-11T11:36:36.166Z,4.11
2019-02-11T11:39:07.748Z,4.06
2019-02-11T11:41:37.043Z,4.07
2019-02-11T11:44:06.348Z,4.10
2019-02-11T11:46:45.637Z,4.18
2019-02-11T11:49:06.646Z,4.26
2019-02-11T11:51:35.903Z,4.29
2019-02-11T11:54:05.165Z,4.40
2019-02-11T11:56:34.475Z,4.41
2019-02-11T11:59:03.770Z,4.25
2019-02-11T12:01:33.060Z,4.32
2019-02-11T12:04:06.196Z,4.32
2019-02-11T12:06:33.415Z,4.33
2019-02-11T12:09:04.562Z,4.29
2019-02-11T12:11:33.905Z,4.30
2019-02-11T12:14:04.260Z,4.26
2019-02-11T12:16:33.551Z,4.30
2019-02-11T12:19:02.799Z,4.05
2019-02-11T12:21:32.992Z,3.89
2019-02-11T12:24:02.261Z,3.90
2019-02-11T12:26:31.507Z,4.04
2019-02-11T12:29:00.792Z,4.16
2019-02-11T12:31:30.033Z,4.36
2019-02-11T12:33:59.352Z,4.53
2019-02-11T12:36:28.628Z,4.49
2019-02-11T12:38:57.923Z,4.48
2019-02-11T12:41:27.202Z,4.45
2019-02-11T12:43:56.491Z,4.47
2019-02-11T12:46:25.830Z,4.55
2019-02-11T12:48:55.083Z,4.52
2019-02-11T12:51:24.357Z,4.68
2019-02-11T12:53:53.642Z,4.78
2019-02-11T12:56:22.917Z,4.87
2019-02-11T12:58:52.275Z,4.94
2019-02-11T13:01:21.554Z,5.07
2019-02-11T13:03:50.901Z,5.00
2019-02-11T13:06:20.172Z,4.98
2019-02-11T13:08:49.474Z,5.00
2019-02-11T13:11:18.734Z,4.90
2019-02-11T13:13:48.032Z,4.85
2019-02-11T13:16:17.297Z,4.88
2019-02-11T13:18:48.382Z,4.86
2019-02-11T13:21:17.701Z,4.90
2019-02-11T13:23:48.780Z,4.82
2019-02-11T13:26:18.073Z,4.95
2019-02-11T13:28:47.408Z,4.87
2019-02-11T13:31:16.688Z,4.90
2019-02-11T13:33:47.399Z,5.00
2019-02-11T13:36:16.724Z,5.14
2019-02-11T13:38:45.974Z,5.13
2019-02-11T13:41:15.269Z,5.03
2019-02-11T13:43:51.050Z,4.92
2019-02-11T13:46:20.346Z,5.00
2019-02-11T13:48:51.327Z,5.00
2019-02-11T13:51:20.666Z,4.97
2019-02-11T13:53:49.922Z,4.93
2019-02-11T13:56:20.231Z,4.90
2019-02-11T13:58:52.278Z,4.93
2019-02-11T14:01:20.496Z,4.98
2019-02-11T14:03:49.798Z,5.02
2019-02-11T14:06:19.060Z,5.00
2019-02-11T14:08:48.366Z,4.97
2019-02-11T14:11:17.894Z,4.95
2019-02-11T14:14:01.647Z,4.87
2019-02-11T14:16:18.383Z,4.88
2019-02-11T14:18:47.668Z,4.86
2019-02-11T14:21:16.949Z,4.82
2019-02-11T14:23:46.204Z,4.95
2019-02-11T14:26:15.494Z,5.02
2019-02-11T14:28:44.745Z,5.04
2019-02-11T14:31:14.059Z,5.15
2019-02-11T14:33:43.370Z,5.08
2019-02-11T14:36:14.412Z,5.06
2019-02-11T14:38:43.694Z,4.98
2019-02-11T14:41:12.940Z,4.99
2019-02-11T14:43:42.239Z,4.98
2019-02-11T14:46:11.531Z,4.99
2019-02-11T14:48:40.810Z,4.98
2019-02-11T14:51:10.103Z,4.91
2019-02-11T14:53:39.383Z,4.97
2019-02-11T14:56:08.667Z,5.06
2019-02-11T14:58:37.917Z,5.07
2019-02-11T15:01:07.199Z,5.15
2019-02-11T15:03:36.499Z,5.02
2019-02-11T15:06:06.891Z,5.03
2019-02-11T15:08:36.177Z,5.02
2019-02-11T15:11:05.434Z,5.01
2019-02-11T15:13:35.840Z,5.04
2019-02-11T15:16:05.206Z,5.01
2019-02-11T15:18:34.640Z,5.02
2019-02-11T15:21:03.910Z,4.97
2019-02-11T15:23:33.157Z,4.95
2019-02-11T15:26:02.455Z,4.90
2019-02-11T15:28:31.867Z,4.95
2019-02-11T15:31:01.179Z,4.94
2019-02-11T15:33:30.509Z,4.97
2019-02-11T15:35:59.843Z,4.89
2019-02-11T15:38:29.105Z,5.04
2019-02-11T15:40:58.350Z,4.94
2019-02-11T15:43:27.623Z,5.03
2019-02-11T15:45:56.885Z,4.92
2019-02-11T15:48:26.188Z,5.03
2019-02-11T15:50:55.460Z,5.00
2019-02-11T15:53:24.709Z,4.94
2019-02-11T15:55:53.987Z,4.94
2019-02-11T15:58:23.322Z,4.92
2019-02-11T16:00:52.648Z,4.94
2019-02-11T16:03:21.880Z,4.92
2019-02-11T16:05:51.170Z,4.92
2019-02-11T16:08:20.486Z,4.90
2019-02-11T16:11:01.179Z,4.95
2019-02-11T16:13:26.349Z,4.89
2019-02-11T16:15:56.338Z,4.93
2019-02-11T16:18:25.591Z,4.85
2019-02-11T16:20:55.375Z,4.84
2019-02-11T16:23:26.621Z,4.87
2019-02-11T16:25:58.506Z,4.83
2019-02-11T16:28:29.900Z,4.89
2019-02-11T16:31:00.791Z,4.90
2019-02-11T16:33:30.817Z,4.86
2019-02-11T16:36:01.965Z,4.87
2019-02-11T16:38:31.822Z,4.83
2019-02-11T16:41:03.272Z,4.82
2019-02-11T16:43:34.834Z,4.84
2019-02-11T16:46:06.127Z,4.80
2019-02-11T16:48:37.522Z,4.80
2019-02-11T16:51:09.972Z,4.73
2019-02-11T16:53:41.430Z,4.81
2019-02-11T16:56:12.705Z,4.70
2019-02-11T16:58:44.243Z,4.77
2019-02-11T17:01:15.361Z,4.79
2019-02-11T17:03:45.260Z,4.76
2019-02-11T17:06:14.586Z,4.69
2019-02-11T17:08:43.865Z,4.73
2019-02-11T17:11:13.115Z,4.66
2019-02-11T17:13:42.363Z,4.56
2019-02-11T17:16:11.654Z,4.46
2019-02-11T17:18:40.915Z,4.51
2019-02-11T17:21:10.206Z,4.52
2019-02-11T17:23:39.585Z,4.55
2019-02-11T17:26:08.855Z,4.56
2019-02-11T17:28:38.134Z,4.62
2019-02-11T17:31:08.182Z,4.61
2019-02-11T17:33:37.455Z,4.58
2019-02-11T17:36:06.735Z,4.64
2019-02-11T17:38:35.978Z,4.57
2019-02-11T17:41:07.803Z,4.54
2019-02-11T17:43:37.042Z,4.52
2019-02-11T17:46:06.406Z,4.58
2019-02-11T17:48:35.661Z,4.54
2019-02-11T17:51:05.159Z,4.46
2019-02-11T17:53:34.394Z,4.43
2019-02-11T17:56:03.716Z,4.22
2019-02-11T17:58:33.026Z,4.04
2019-02-11T18:01:02.454Z,3.96
2019-02-11T18:03:31.722Z,3.91
2019-02-11T18:06:01.026Z,3.84
2019-02-11T18:08:30.354Z,3.80
2019-02-11T18:10:59.609Z,3.77
2019-02-11T18:13:28.936Z,3.87
2019-02-11T18:15:58.205Z,3.79
2019-02-11T18:18:27.467Z,3.83
2019-02-11T18:20:56.738Z,3.83
2019-02-11T18:23:26.179Z,3.82
2019-02-11T18:25:55.468Z,3.79
2019-02-11T18:28:24.745Z,3.76
2019-02-11T18:30:54.054Z,3.70
2019-02-11T18:33:23.411Z,3.67
2019-02-11T18:35:52.694Z,3.66
2019-02-11T18:38:21.958Z,3.54
2019-02-11T18:40:51.250Z,3.54
2019-02-11T18:43:21.629Z,3.47
2019-02-11T18:45:50.944Z,3.44
2019-02-11T18:48:21.856Z,3.41
2019-02-11T18:50:51.155Z,3.36
2019-02-11T18:53:22.272Z,3.31
2019-02-11T18:55:53.094Z,3.30
2019-02-11T18:58:22.391Z,3.32
2019-02-11T19:00:51.675Z,3.40
2019-02-11T19:03:21.405Z,3.26
2019-02-11T19:05:51.134Z,3.17
2019-02-11T19:08:20.425Z,3.22
2019-02-11T19:10:51.531Z,3.20
2019-02-11T19:13:20.826Z,3.16
2019-02-11T19:15:50.275Z,3.06
2019-02-11T19:18:20.943Z,3.10
2019-02-11T19:20:52.097Z,3.10
2019-02-11T19:23:22.000Z,3.13
2019-02-11T19:25:52.556Z,3.17
2019-02-11T19:28:21.875Z,3.07
2019-02-11T19:30:51.159Z,3.12
2019-02-11T19:33:20.955Z,3.10
2019-02-11T19:35:51.182Z,3.08
2019-02-11T19:38:20.545Z,3.06
2019-02-11T19:40:50.313Z,2.99
2019-02-11T19:43:19.777Z,3.07
2019-02-11T19:45:50.713Z,2.97
2019-02-11T19:48:20.038Z,2.97
2019-02-11T19:50:49.403Z,2.99
2019-02-11T19:53:18.890Z,3.04
2019-02-11T19:55:48.170Z,3.03
2019-02-11T19:58:18.610Z,3.02
2019-02-11T20:00:48.013Z,3.01
2019-02-11T20:03:17.902Z,3.02
2019-02-11T20:05:48.235Z,2.99
2019-02-11T20:08:20.058Z,2.92
2019-02-11T20:10:49.431Z,2.99
2019-02-11T20:13:18.871Z,2.99
2019-02-11T20:15:48.202Z,2.92
2019-02-11T20:18:19.235Z,2.98
2019-02-11T20:20:49.317Z,2.90
2019-02-11T20:23:18.650Z,2.86
2019-02-11T20:25:48.937Z,2.90
2019-02-11T20:28:18.212Z,2.92
2019-02-11T20:30:50.570Z,2.88
2019-02-11T20:33:19.947Z,2.93
2019-02-11T20:35:49.760Z,2.79
2019-02-11T20:38:19.846Z,2.82
2019-02-11T20:40:49.689Z,2.86
2019-02-11T20:43:21.291Z,2.76
2019-02-11T20:45:52.737Z,2.80
2019-02-11T20:48:25.204Z,2.77
2019-02-11T20:50:56.576Z,2.74
2019-02-11T20:53:29.357Z,2.77
2019-02-11T20:56:01.874Z,2.76
2019-02-11T20:58:35.234Z,2.77
2019-02-11T21:01:06.103Z,2.71
2019-02-11T21:03:37.528Z,2.61
2019-02-11T21:06:06.981Z,2.69
2019-02-11T21:08:37.023Z,2.76
2019-02-11T21:11:06.320Z,2.68
2019-02-11T21:13:36.102Z,2.67
2019-02-11T21:16:05.390Z,2.70
2019-02-11T21:18:34.700Z,2.66
2019-02-11T21:21:04.574Z,2.65
2019-02-11T21:23:33.859Z,2.66
2019-02-11T21:26:03.114Z,2.65
2019-02-11T21:28:32.707Z,2.61
2019-02-11T21:31:02.276Z,2.66
2019-02-11T21:33:31.638Z,2.54
2019-02-11T21:36:00.949Z,2.62
2019-02-11T21:38:31.221Z,2.55
2019-02-11T21:41:01.150Z,2.60
2019-02-11T21:43:30.469Z,2.56
2019-02-11T21:45:59.719Z,2.55
2019-02-11T21:48:28.983Z,2.47
2019-02-11T21:50:58.415Z,2.48
2019-02-11T21:53:27.926Z,2.54
2019-02-11T21:55:57.215Z,2.45
2019-02-11T21:58:26.642Z,2.43
2019-02-11T22:01:02.088Z,2.38
2019-02-11T22:03:26.901Z,2.39
2019-02-11T22:05:56.183Z,2.40
2019-02-11T22:08:25.490Z,2.37
2019-02-11T22:10:56.072Z,2.35
2019-02-11T22:13:25.342Z,2.29
2019-02-11T22:15:55.065Z,2.25
2019-02-11T22:18:24.347Z,2.20
2019-02-11T22:20:54.330Z,2.30
2019-02-11T22:23:23.609Z,2.26
2019-02-11T22:25:52.867Z,2.30
2019-02-11T22:28:22.170Z,2.25
2019-02-11T22:30:51.517Z,2.24
2019-02-11T22:33:20.847Z,2.21
2019-02-11T22:35:50.155Z,2.20
2019-02-11T22:38:19.769Z,2.27
2019-02-11T22:40:49.061Z,2.21
2019-02-11T22:43:18.641Z,2.22
2019-02-11T22:45:47.975Z,2.23
2019-02-11T22:48:17.593Z,2.30
2019-02-11T22:50:47.265Z,2.29
2019-02-11T22:53:16.918Z,2.33
2019-02-11T22:55:46.219Z,2.35
2019-02-11T22:58:16.198Z,2.39
2019-02-11T23:00:53.200Z,2.50
2019-02-11T23:03:22.456Z,2.46
2019-02-11T23:05:51.720Z,2.47
2019-02-11T23:08:21.013Z,2.51
2019-02-11T23:10:50.536Z,2.54
2019-02-11T23:13:19.798Z,2.53
2019-02-11T23:15:49.223Z,2.50
2019-02-11T23:18:18.516Z,2.50
2019-02-11T23:20:52.146Z,2.51
2019-02-11T23:23:18.924Z,2.59
2019-02-11T23:25:48.178Z,2.54
2019-02-11T23:28:17.426Z,2.68
2019-02-11T23:30:46.695Z,2.60
2019-02-11T23:33:15.944Z,2.75
2019-02-11T23:35:45.187Z,2.55
2019-02-11T23:38:14.477Z,2.74
2019-02-11T23:40:43.724Z,2.69
2019-02-11T23:43:14.772Z,2.68
2019-02-11T23:45:44.039Z,2.63
2019-02-11T23:48:13.597Z,2.70
2019-02-11T23:50:42.881Z,2.69
2019-02-11T23:53:12.143Z,2.66
2019-02-11T23:55:41.391Z,2.71
2019-02-11T23:58:10.669Z,2.64
